CEB915 VHHH-RPLL
Flight info
| Callsign | CEB915 |
|---|---|
| Flight time | N/A |
| Altitude | 37000 |
| Route | DALOL1X/07R DALOL V642 NOMAN A461 CAB CAB5R |
| Aircraft | A339/H-SADE1E2E3GHIJ3J5M1P2RWXY/LB2D1 |
Departure
| Time | N/A |
|---|---|
| Airport | Hong Kong International Airport (VHHH) |
Arrival
| Time | 2026-05-07 14:00 |
|---|---|
| Airport | Ninoy Aquino International Airport (RPLL) |
| Time | Latitude | Longitude | Altitude | Speed | Heading |
|---|---|---|---|---|---|
| 2026-05-07 13:34 | 15.57777 | 120.97371 | 22239 ft | 369 kts | 153° |
| 2026-05-07 13:34 | 15.55796 | 120.98423 | 21944 ft | 367 kts | 153° |
| 2026-05-07 13:35 | 15.53599 | 120.99590 | 21627 ft | 364 kts | 153° |
| 2026-05-07 13:35 | 15.51468 | 121.00722 | 21566 ft | 353 kts | 153° |
| 2026-05-07 13:35 | 15.49387 | 121.01630 | 21522 ft | 342 kts | 166° |
| 2026-05-07 13:35 | 15.47078 | 121.01816 | 21417 ft | 333 kts | 187° |
| 2026-05-07 13:36 | 15.44948 | 121.01253 | 21096 ft | 331 kts | 200° |
| 2026-05-07 13:36 | 15.42829 | 121.00420 | 20778 ft | 330 kts | 201° |
| 2026-05-07 13:36 | 15.40692 | 120.99548 | 20469 ft | 328 kts | 201° |
| 2026-05-07 13:36 | 15.38811 | 120.98785 | 20202 ft | 327 kts | 201° |
| 2026-05-07 13:37 | 15.36682 | 120.97930 | 19906 ft | 324 kts | 201° |
| 2026-05-07 13:37 | 15.34834 | 120.97194 | 19649 ft | 323 kts | 201° |
| 2026-05-07 13:37 | 15.32797 | 120.96388 | 19364 ft | 321 kts | 201° |
| 2026-05-07 13:37 | 15.30850 | 120.95620 | 19093 ft | 319 kts | 201° |
| 2026-05-07 13:38 | 15.28813 | 120.94819 | 18808 ft | 317 kts | 201° |
| 2026-05-07 13:38 | 15.26771 | 120.94016 | 18523 ft | 315 kts | 200° |
| 2026-05-07 13:38 | 15.24870 | 120.93269 | 18258 ft | 314 kts | 200° |
| 2026-05-07 13:38 | 15.22839 | 120.92472 | 17974 ft | 312 kts | 200° |
| 2026-05-07 13:39 | 15.20814 | 120.91678 | 17689 ft | 310 kts | 200° |
| 2026-05-07 13:39 | 15.18830 | 120.90900 | 17412 ft | 309 kts | 200° |
| 2026-05-07 13:39 | 15.16795 | 120.90102 | 17124 ft | 307 kts | 200° |
| 2026-05-07 13:39 | 15.14886 | 120.89354 | 16856 ft | 305 kts | 200° |
| 2026-05-07 13:40 | 15.12863 | 120.88562 | 16570 ft | 304 kts | 200° |
| 2026-05-07 13:40 | 15.10906 | 120.87794 | 16294 ft | 302 kts | 200° |
| 2026-05-07 13:40 | 15.08972 | 120.87037 | 16019 ft | 301 kts | 200° |
| 2026-05-07 13:40 | 15.07056 | 120.86287 | 15748 ft | 299 kts | 200° |
| 2026-05-07 13:41 | 15.05269 | 120.85586 | 15495 ft | 298 kts | 200° |
| 2026-05-07 13:41 | 15.03405 | 120.84857 | 15229 ft | 297 kts | 200° |
| 2026-05-07 13:41 | 15.01450 | 120.84091 | 14952 ft | 295 kts | 200° |
| 2026-05-07 13:41 | 14.99627 | 120.83378 | 14692 ft | 294 kts | 200° |
| 2026-05-07 13:42 | 14.97762 | 120.82649 | 14428 ft | 293 kts | 200° |
| 2026-05-07 13:42 | 14.95867 | 120.81907 | 14158 ft | 291 kts | 200° |
| 2026-05-07 13:42 | 14.93985 | 120.81171 | 13890 ft | 290 kts | 200° |
| 2026-05-07 13:42 | 14.92083 | 120.80429 | 13619 ft | 289 kts | 200° |
| 2026-05-07 13:43 | 14.90222 | 120.79703 | 13351 ft | 288 kts | 200° |
| 2026-05-07 13:43 | 14.88550 | 120.79052 | 13111 ft | 287 kts | 200° |
| 2026-05-07 13:43 | 14.86690 | 120.78326 | 12845 ft | 285 kts | 200° |
| 2026-05-07 13:43 | 14.84836 | 120.77604 | 12579 ft | 284 kts | 200° |
| 2026-05-07 13:44 | 14.83001 | 120.76888 | 12315 ft | 283 kts | 200° |
| 2026-05-07 13:44 | 14.81183 | 120.76180 | 12052 ft | 282 kts | 200° |
| 2026-05-07 13:44 | 14.79463 | 120.75509 | 11803 ft | 281 kts | 200° |
| 2026-05-07 13:44 | 14.77637 | 120.74796 | 11538 ft | 280 kts | 201° |
| 2026-05-07 13:45 | 14.75807 | 120.74079 | 11274 ft | 279 kts | 201° |
| 2026-05-07 13:45 | 14.74015 | 120.73377 | 11015 ft | 278 kts | 201° |
| 2026-05-07 13:45 | 14.72231 | 120.72679 | 10756 ft | 277 kts | 201° |
| 2026-05-07 13:45 | 14.70434 | 120.71979 | 10496 ft | 276 kts | 201° |
| 2026-05-07 13:46 | 14.68668 | 120.71291 | 10240 ft | 275 kts | 201° |
| 2026-05-07 13:46 | 14.66928 | 120.70614 | 9989 ft | 274 kts | 201° |
| 2026-05-07 13:46 | 14.65105 | 120.69905 | 9737 ft | 272 kts | 201° |
| 2026-05-07 13:46 | 14.63358 | 120.69227 | 9708 ft | 266 kts | 199° |
| 2026-05-07 13:47 | 14.61568 | 120.68932 | 9677 ft | 265 kts | 173° |
| 2026-05-07 13:47 | 14.59843 | 120.69518 | 9466 ft | 266 kts | 152° |
| 2026-05-07 13:47 | 14.58249 | 120.70447 | 9203 ft | 266 kts | 149° |
| 2026-05-07 13:47 | 14.56675 | 120.71412 | 8950 ft | 265 kts | 149° |
| 2026-05-07 13:48 | 14.55110 | 120.72360 | 8705 ft | 265 kts | 150° |
| 2026-05-07 13:48 | 14.53514 | 120.73264 | 8626 ft | 257 kts | 160° |
| 2026-05-07 13:48 | 14.51864 | 120.73422 | 8590 ft | 246 kts | 195° |
| 2026-05-07 13:48 | 14.50363 | 120.72550 | 8398 ft | 243 kts | 229° |
| 2026-05-07 13:49 | 14.49443 | 120.71110 | 8160 ft | 243 kts | 241° |
| 2026-05-07 13:49 | 14.48637 | 120.69591 | 7928 ft | 243 kts | 242° |
| 2026-05-07 13:49 | 14.47837 | 120.68081 | 7700 ft | 243 kts | 241° |
| 2026-05-07 13:49 | 14.47008 | 120.66547 | 7468 ft | 242 kts | 240° |
| 2026-05-07 13:50 | 14.46453 | 120.65537 | 7317 ft | 241 kts | 240° |
| 2026-05-07 13:50 | 14.45140 | 120.63726 | 6978 ft | 239 kts | 212° |
| 2026-05-07 13:50 | 14.43574 | 120.63226 | 6723 ft | 237 kts | 177° |
| 2026-05-07 13:50 | 14.42031 | 120.63686 | 6501 ft | 233 kts | 152° |
| 2026-05-07 13:51 | 14.40640 | 120.64503 | 6298 ft | 231 kts | 149° |
| 2026-05-07 13:51 | 14.39308 | 120.65321 | 6086 ft | 229 kts | 149° |
| 2026-05-07 13:51 | 14.37935 | 120.66155 | 5870 ft | 227 kts | 150° |
| 2026-05-07 13:51 | 14.36576 | 120.66965 | 5659 ft | 225 kts | 150° |
| 2026-05-07 13:52 | 14.35230 | 120.67760 | 5452 ft | 223 kts | 150° |
| 2026-05-07 13:52 | 14.34073 | 120.68798 | 5206 ft | 222 kts | 120° |
| 2026-05-07 13:52 | 14.33670 | 120.70291 | 4974 ft | 219 kts | 87° |
| 2026-05-07 13:52 | 14.34047 | 120.71804 | 4732 ft | 215 kts | 66° |
| 2026-05-07 13:53 | 14.34739 | 120.73143 | 4511 ft | 211 kts | 59° |
| 2026-05-07 13:53 | 14.35496 | 120.74421 | 4291 ft | 207 kts | 58° |
| 2026-05-07 13:53 | 14.36232 | 120.75658 | 4140 ft | 200 kts | 59° |
| 2026-05-07 13:53 | 14.36919 | 120.76836 | 4116 ft | 185 kts | 59° |
| 2026-05-07 13:54 | 14.37546 | 120.77936 | 4101 ft | 171 kts | 60° |
| 2026-05-07 13:54 | 14.38124 | 120.78963 | 4116 ft | 171 kts | 60° |
| 2026-05-07 13:54 | 14.38662 | 120.79935 | 4123 ft | 171 kts | 60° |
| 2026-05-07 13:54 | 14.39243 | 120.80989 | 4125 ft | 171 kts | 60° |
| 2026-05-07 13:55 | 14.39832 | 120.82059 | 3980 ft | 172 kts | 60° |
| 2026-05-07 13:55 | 14.40421 | 120.83128 | 3754 ft | 171 kts | 60° |
| 2026-05-07 13:55 | 14.41002 | 120.84181 | 3532 ft | 171 kts | 60° |
| 2026-05-07 13:55 | 14.41583 | 120.85232 | 3310 ft | 170 kts | 60° |
| 2026-05-07 13:56 | 14.42170 | 120.86293 | 3086 ft | 169 kts | 60° |
| 2026-05-07 13:56 | 14.42744 | 120.87329 | 2868 ft | 163 kts | 60° |
| 2026-05-07 13:56 | 14.43275 | 120.88287 | 2653 ft | 157 kts | 60° |
| 2026-05-07 13:56 | 14.43790 | 120.89217 | 2447 ft | 151 kts | 60° |
| 2026-05-07 13:57 | 14.44322 | 120.90174 | 2248 ft | 151 kts | 60° |
| 2026-05-07 13:57 | 14.44846 | 120.91118 | 2056 ft | 151 kts | 60° |
| 2026-05-07 13:57 | 14.45366 | 120.92054 | 1861 ft | 149 kts | 60° |
| 2026-05-07 13:57 | 14.45877 | 120.92974 | 1652 ft | 142 kts | 60° |
| 2026-05-07 13:58 | 14.46354 | 120.93832 | 1462 ft | 137 kts | 60° |
| 2026-05-07 13:58 | 14.46826 | 120.94672 | 1295 ft | 138 kts | 59° |
| 2026-05-07 13:58 | 14.47298 | 120.95517 | 1120 ft | 137 kts | 59° |
| 2026-05-07 13:58 | 14.47775 | 120.96384 | 936 ft | 137 kts | 59° |
| 2026-05-07 13:59 | 14.48245 | 120.97234 | 740 ft | 137 kts | 59° |
| 2026-05-07 13:59 | 14.48701 | 120.98080 | 513 ft | 135 kts | 59° |
| 2026-05-07 13:59 | 14.49175 | 120.98930 | 358 ft | 136 kts | 57° |
| 2026-05-07 13:59 | 14.49629 | 120.99740 | 206 ft | 136 kts | 58° |
| 2026-05-07 14:00 | 14.50101 | 121.00577 | 96 ft | 129 kts | 57° |
| 2026-05-07 14:00 | 14.50488 | 121.01268 | 93 ft | 87 kts | 62° |
| 2026-05-07 14:00 | 14.50731 | 121.01712 | 93 ft | 66 kts | 61° |
| 2026-05-07 14:00 | 14.50942 | 121.02096 | 93 ft | 49 kts | 57° |
| 2026-05-07 14:01 | 14.51108 | 121.02274 | 93 ft | 21 kts | 41° |
| 2026-05-07 14:01 | 14.51183 | 121.02286 | 93 ft | 9 kts | 301° |
| 2026-05-07 14:01 | 14.51166 | 121.02212 | 93 ft | 11 kts | 241° |
| 2026-05-07 14:01 | 14.51125 | 121.02138 | 93 ft | 12 kts | 239° |
| 2026-05-07 14:02 | 14.51078 | 121.02055 | 93 ft | 12 kts | 240° |
| 2026-05-07 14:02 | 14.51083 | 121.01979 | 93 ft | 11 kts | 305° |
| 2026-05-07 14:02 | 14.51140 | 121.01916 | 93 ft | 12 kts | 315° |
| 2026-05-07 14:02 | 14.51205 | 121.01849 | 93 ft | 13 kts | 315° |
| 2026-05-07 14:03 | 14.51274 | 121.01778 | 93 ft | 14 kts | 315° |
| 2026-05-07 14:03 | 14.51345 | 121.01704 | 93 ft | 15 kts | 315° |
| 2026-05-07 14:03 | 14.51420 | 121.01626 | 93 ft | 15 kts | 315° |
| 2026-05-07 14:03 | 14.51486 | 121.01559 | 93 ft | 8 kts | 324° |
| 2026-05-07 14:04 | 14.51518 | 121.01565 | 93 ft | 5 kts | 39° |
| 2026-05-07 14:04 | 14.51552 | 121.01599 | 92 ft | 7 kts | 44° |
| 2026-05-07 14:04 | 14.51562 | 121.01609 | 93 ft | 0 kts | 44° |